Time;durP1;ratioP1;P1;durP2;ratioP2;P2;SDS_P1;SDS_P2;PMS_P1;PMS_P2;Temp;Humidity;BMP_temperature;BMP_pressure;BME280_temperature;BME280_humidity;BME280_pressure;Samples;Min_cycle;Max_cycle;Signal;HPM_P1;HPM_P2
2022/09/10 00:01:58;;;;;;;3.30;2.50;;;;;;;16.95;83.57;98383.36;1627617;88;25697;-60
2022/09/10 00:04:24;;;;;;;5.25;2.62;;;;;;;16.81;84.04;98387.41;1627479;87;26032;-60
2022/09/10 00:06:50;;;;;;;5.53;2.75;;;;;;;16.79;84.08;98385.59;1627808;88;25700;-59
2022/09/10 00:09:16;;;;;;;3.75;2.80;;;;;;;16.80;84.06;98383.05;1628026;87;27520;-60
2022/09/10 00:11:44;;;;;;;4.28;2.72;;;;;;;16.79;84.09;98381.45;1627434;87;25684;-60
2022/09/10 00:14:16;;;;;;;5.53;2.80;;;;;;;16.77;84.21;98381.00;1627430;87;25712;-59
2022/09/10 00:16:43;;;;;;;3.83;2.52;;;;;;;16.68;84.41;98376.49;1627602;88;26028;-60
2022/09/10 00:19:11;;;;;;;5.10;2.77;;;;;;;16.60;84.56;98374.72;1627505;87;25624;-59
2022/09/10 00:21:37;;;;;;;4.00;2.45;;;;;;;16.53;85.16;98383.65;1627356;88;27429;-60
2022/09/10 00:24:05;;;;;;;3.22;2.80;;;;;;;16.50;85.22;98387.73;1627412;87;25783;-60
2022/09/10 00:26:37;;;;;;;4.75;2.92;;;;;;;16.48;85.31;98389.48;1627812;88;25645;-59
2022/09/10 00:29:05;;;;;;;3.47;2.90;;;;;;;16.46;85.74;98390.41;1627268;88;25556;-60
2022/09/10 00:31:33;;;;;;;4.20;3.00;;;;;;;16.45;85.71;98396.30;1627733;87;25494;-59
2022/09/10 00:34:01;;;;;;;4.05;2.90;;;;;;;16.42;85.92;98398.64;1627698;88;27478;-60
2022/09/10 00:36:38;;;;;;;5.15;3.27;;;;;;;16.48;86.03;98401.11;1627495;88;25685;-59
2022/09/10 00:39:09;;;;;;;6.28;2.75;;;;;;;16.49;85.74;98397.20;1627703;87;25593;-59
2022/09/10 00:41:38;;;;;;;5.90;2.60;;;;;;;16.48;86.19;98392.24;1627780;88;26054;-60
2022/09/10 00:44:27;;;;;;;4.12;2.60;;;;;;;16.51;86.39;98399.02;1627814;88;25460;-60
2022/09/10 00:46:55;;;;;;;3.55;2.47;;;;;;;16.60;86.26;98399.62;1627444;87;27497;-60
2022/09/10 00:49:29;;;;;;;3.22;2.40;;;;;;;16.63;86.04;98399.47;1627339;88;25715;-60
2022/09/10 00:51:56;;;;;;;5.30;2.72;;;;;;;16.57;85.83;98397.57;1627331;88;25680;-60
2022/09/10 00:54:25;;;;;;;3.80;3.00;;;;;;;16.61;86.42;98406.74;1627643;88;26201;-60
2022/09/10 00:56:55;;;;;;;3.62;3.00;;;;;;;16.60;86.22;98407.91;1627689;87;25447;-60
2022/09/10 00:59:25;;;;;;;4.00;3.07;;;;;;;16.60;86.39;98408.48;1627884;87;27540;-60
2022/09/10 01:01:51;;;;;;;4.12;3.58;;;;;;;16.63;86.49;98403.61;1627553;88;25661;-59
2022/09/10 01:04:18;;;;;;;5.33;4.03;;;;;;;16.55;86.65;98396.55;1623860;87;25697;-60
2022/09/10 01:06:47;;;;;;;6.00;4.10;;;;;;;16.52;86.71;98394.50;1627335;87;26946;-60
2022/09/10 01:09:14;;;;;;;6.65;3.90;;;;;;;16.50;86.50;98392.70;1627732;87;25669;-60
2022/09/10 01:12:14;;;;;;;4.55;3.95;;;;;;;16.52;86.49;98395.10;1627598;87;28260;-60
2022/09/10 01:14:58;;;;;;;5.47;4.25;;;;;;;16.53;86.17;98398.86;1627768;87;25581;-60
2022/09/10 01:17:44;;;;;;;6.20;4.15;;;;;;;16.49;86.13;98393.05;1627399;87;25704;-59
2022/09/10 01:20:28;;;;;;;5.92;4.15;;;;;;;16.47;86.29;98389.84;1625246;88;28121;-60
2022/09/10 01:23:16;;;;;;;5.40;4.60;;;;;;;16.43;86.53;98388.36;1627688;88;25682;-59
2022/09/10 01:26:24;;;;;;;5.20;4.47;;;;;;;16.41;86.51;98385.95;1627583;87;28185;-59
2022/09/10 01:29:08;;;;;;;5.95;4.85;;;;;;;16.36;86.71;98377.14;1627483;87;25695;-59
2022/09/10 01:31:44;;;;;;;5.33;4.12;;;;;;;16.34;86.61;98372.55;1627638;87;25712;-60
2022/09/10 01:34:15;;;;;;;5.00;4.05;;;;;;;16.30;86.63;98369.11;1627126;88;26045;-60
2022/09/10 01:36:44;;;;;;;8.28;3.98;;;;;;;16.27;86.92;98361.53;1626654;88;25705;-60
2022/09/10 01:39:11;;;;;;;3.30;2.80;;;;;;;16.26;86.98;98353.03;1627690;87;27605;-59
2022/09/10 01:41:37;;;;;;;4.70;2.60;;;;;;;16.28;86.88;98347.95;1627254;87;25659;-59
2022/09/10 01:44:09;;;;;;;3.27;2.50;;;;;;;16.27;86.93;98351.08;1627777;88;25853;-59
2022/09/10 01:46:50;;;;;;;2.83;1.90;;;;;;;16.26;86.87;98346.12;1627435;87;25536;-59
2022/09/10 01:49:56;;;;;;;3.00;2.20;;;;;;;16.20;86.76;98353.69;1627217;88;25461;-59
2022/09/10 01:53:12;;;;;;;1.95;1.65;;;;;;;16.14;86.90;98344.84;1596631;89;27576;-59
2022/09/10 01:55:53;;;;;;;2.65;1.80;;;;;;;16.07;87.10;98337.77;1596958;89;25746;-59
2022/09/10 01:58:30;;;;;;;2.85;2.00;;;;;;;15.99;87.22;98336.23;1596906;89;25527;-59
2022/09/10 02:01:22;;;;;;;3.12;2.10;;;;;;;15.91;88.06;98331.65;1597614;89;26099;-59
2022/09/10 02:03:55;;;;;;;2.20;1.72;;;;;;;15.83;88.20;98334.03;1596982;89;25505;-59
2022/09/10 02:06:27;;;;;;;2.90;2.10;;;;;;;15.88;88.48;98338.70;1597680;89;27369;-59
2022/09/10 02:08:55;;;;;;;2.52;1.90;;;;;;;15.94;87.88;98341.98;1597270;89;26083;-59
2022/09/10 02:11:23;;;;;;;5.40;2.00;;;;;;;15.93;87.54;98337.63;1597444;89;25745;-59
2022/09/10 02:13:49;;;;;;;2.67;1.70;;;;;;;15.93;87.58;98339.01;1597310;89;26051;-59
2022/09/10 02:16:29;;;;;;;5.95;1.90;;;;;;;15.89;87.84;98331.22;1597444;89;25754;-59
2022/09/10 02:18:58;;;;;;;2.47;2.00;;;;;;;15.80;88.02;98329.43;1597328;89;27441;-58
2022/09/10 02:21:25;;;;;;;3.25;1.85;;;;;;;15.75;88.60;98329.69;1597158;89;25564;-58
2022/09/10 02:23:57;;;;;;;2.50;2.22;;;;;;;15.75;88.74;98326.92;1597360;89;25506;-58
2022/09/10 02:26:24;;;;;;;2.67;1.80;;;;;;;15.76;88.72;98323.02;1597396;89;26847;-58
2022/09/10 02:28:51;;;;;;;3.05;2.00;;;;;;;15.80;88.30;98323.91;1619916;88;25499;-58
2022/09/10 02:31:18;;;;;;;3.70;1.82;;;;;;;15.85;88.45;98317.88;1627757;87;27440;-59
2022/09/10 02:33:44;;;;;;;2.12;1.87;;;;;;;15.90;88.30;98325.91;1627574;87;25438;-58
2022/09/10 02:36:10;;;;;;;3.58;2.10;;;;;;;15.93;87.83;98333.48;1627680;87;25518;-58
2022/09/10 02:38:37;;;;;;;2.12;1.90;;;;;;;16.03;88.23;98328.00;1627640;87;26893;-58
2022/09/10 02:41:03;;;;;;;2.45;1.95;;;;;;;16.01;87.75;98326.20;1627475;87;25601;-58
2022/09/10 02:43:29;;;;;;;3.08;2.22;;;;;;;15.96;87.81;98330.00;1627633;88;28237;-58
2022/09/10 02:45:57;;;;;;;2.77;2.10;;;;;;;15.98;88.33;98332.44;1627483;87;25982;-59
2022/09/10 02:48:29;;;;;;;3.47;1.85;;;;;;;16.05;87.97;98338.13;1622888;87;25636;-59
2022/09/10 02:50:56;;;;;;;3.02;2.30;;;;;;;16.09;87.94;98339.61;1622834;88;26900;-58
2022/09/10 02:53:23;;;;;;;3.77;2.17;;;;;;;16.10;88.04;98343.39;1622757;88;25475;-58
2022/09/10 02:55:49;;;;;;;3.35;2.02;;;;;;;16.09;87.53;98349.28;1622919;88;27523;-59
2022/09/10 02:58:16;;;;;;;2.47;2.17;;;;;;;16.04;87.72;98355.88;1623183;88;25693;-58
2022/09/10 03:00:45;;;;;;;3.50;2.12;;;;;;;16.01;87.89;98349.69;1623172;88;25459;-58
2022/09/10 03:03:12;;;;;;;2.33;2.10;;;;;;;15.99;88.19;98345.09;1622925;88;26102;-58
2022/09/10 03:05:40;;;;;;;2.65;2.15;;;;;;;15.99;87.96;98347.85;1622977;88;25560;-59
2022/09/10 03:08:08;;;;;;;2.47;2.20;;;;;;;16.04;88.11;98342.84;1622940;88;28329;-59
2022/09/10 03:10:35;;;;;;;2.80;2.10;;;;;;;16.07;87.55;98345.49;1623032;88;25645;-60
2022/09/10 03:13:01;;;;;;;3.37;2.20;;;;;;;16.00;87.47;98343.95;1623041;88;25466;-61
2022/09/10 03:15:27;;;;;;;2.22;2.00;;;;;;;15.97;87.61;98341.90;1622921;88;26058;-61
2022/09/10 03:17:54;;;;;;;3.67;2.12;;;;;;;15.92;87.63;98344.32;1623204;88;25704;-61
2022/09/10 03:20:21;;;;;;;2.80;1.80;;;;;;;15.86;87.96;98344.37;1623193;88;27419;-62
2022/09/10 03:22:50;;;;;;;4.50;2.08;;;;;;;15.77;88.12;98342.58;1622861;88;25629;-62
2022/09/10 03:25:18;;;;;;;2.95;2.10;;;;;;;15.73;88.31;98345.84;1622887;88;25704;-61
2022/09/10 03:27:44;;;;;;;3.17;2.30;;;;;;;15.70;88.38;98349.88;1623095;88;26127;-61
2022/09/10 03:30:12;;;;;;;3.40;1.80;;;;;;;15.70;88.45;98349.88;1623209;88;25458;-60
2022/09/10 03:32:38;;;;;;;1.95;1.70;;;;;;;15.78;88.51;98346.15;1623239;88;27420;-60
2022/09/10 03:35:05;;;;;;;2.72;2.00;;;;;;;15.78;88.31;98353.84;1623057;88;25797;-61
2022/09/10 03:37:31;;;;;;;2.15;1.80;;;;;;;15.73;88.19;98343.64;1623227;88;25672;-60
2022/09/10 03:39:57;;;;;;;4.55;2.00;;;;;;;15.69;88.56;98347.72;1623174;88;26846;-60
2022/09/10 03:42:24;;;;;;;2.27;1.95;;;;;;;15.76;88.81;98350.65;1623046;88;25448;-59
2022/09/10 03:44:51;;;;;;;2.87;2.25;;;;;;;15.88;88.63;98346.17;1623062;88;27387;-60
2022/09/10 03:47:17;;;;;;;3.58;2.12;;;;;;;15.90;88.06;98342.48;1624528;87;25750;-60
2022/09/10 03:49:43;;;;;;;2.15;1.87;;;;;;;15.88;88.08;98345.61;1627687;87;25669;-60
2022/09/10 03:52:11;;;;;;;2.08;1.60;;;;;;;15.89;88.01;98338.91;1627669;87;26804;-60
2022/09/10 03:54:38;;;;;;;2.27;1.82;;;;;;;15.89;87.87;98342.27;1627606;87;25437;-60
2022/09/10 03:57:05;;;;;;;2.40;1.60;;;;;;;15.84;88.08;98336.44;1627621;87;27518;-60
2022/09/10 03:59:31;;;;;;;2.62;1.80;;;;;;;15.90;88.03;98336.96;1627703;87;25745;-60
2022/09/10 04:01:57;;;;;;;4.05;1.80;;;;;;;15.75;87.99;98324.77;1627440;87;25705;-60
2022/09/10 04:04:24;;;;;;;5.45;2.08;;;;;;;15.79;87.93;98334.74;1627573;87;26696;-61
2022/09/10 04:06:52;;;;;;;2.45;1.98;;;;;;;15.74;88.05;98328.66;1627759;87;25502;-60
2022/09/10 04:09:19;;;;;;;4.37;1.87;;;;;;;15.71;88.37;98319.73;1627401;87;27472;-60
2022/09/10 04:11:45;;;;;;;4.03;2.10;;;;;;;15.71;88.53;98314.99;1627581;87;25467;-60
2022/09/10 04:14:12;;;;;;;3.25;1.72;;;;;;;15.77;88.40;98317.71;1627364;87;25446;-60
2022/09/10 04:16:38;;;;;;;3.45;1.92;;;;;;;15.77;88.13;98312.75;1627409;87;26198;-60
2022/09/10 04:19:04;;;;;;;2.77;1.98;;;;;;;15.73;88.10;98308.55;1627378;88;25682;-61
2022/09/10 04:21:30;;;;;;;2.98;1.90;;;;;;;15.67;88.07;98309.97;1627739;87;28189;-60
2022/09/10 04:23:59;;;;;;;4.00;2.27;;;;;;;15.63;88.21;98305.72;1627891;88;25610;-60
2022/09/10 04:26:25;;;;;;;2.60;2.17;;;;;;;15.62;88.43;98298.61;1627522;87;25759;-60
2022/09/10 04:28:52;;;;;;;3.25;2.15;;;;;;;15.63;88.09;98296.66;1627594;88;27001;-60
2022/09/10 04:31:19;;;;;;;3.42;2.40;;;;;;;15.71;88.71;98301.78;1627436;88;25649;-60
2022/09/10 04:33:46;;;;;;;2.33;2.00;;;;;;;15.83;88.58;98293.97;1627638;88;28310;-60
2022/09/10 04:36:13;;;;;;;2.87;2.10;;;;;;;15.90;88.39;98292.18;1627742;87;25462;-60
2022/09/10 04:38:40;;;;;;;2.37;1.90;;;;;;;15.94;87.68;98293.63;1627606;87;25430;-60
2022/09/10 04:41:08;;;;;;;2.60;2.00;;;;;;;15.93;87.81;98285.94;1627568;88;26846;-60
2022/09/10 04:43:36;;;;;;;2.35;1.92;;;;;;;15.97;88.22;98286.63;1627574;88;25628;-60
2022/09/10 04:46:03;;;;;;;4.87;1.70;;;;;;;15.98;87.69;98282.70;1627635;88;27557;-60
2022/09/10 04:48:31;;;;;;;2.02;1.60;;;;;;;16.03;88.35;98276.88;1624038;88;25502;-60
2022/09/10 04:50:58;;;;;;;1.55;1.45;;;;;;;16.13;87.90;98286.58;1623146;88;25716;-60
2022/09/10 04:53:26;;;;;;;3.17;1.75;;;;;;;16.11;87.17;98283.37;1622908;88;27020;-61
2022/09/10 04:55:54;;;;;;;2.65;1.80;;;;;;;16.09;87.45;98281.56;1622832;88;25692;-62
2022/09/10 04:58:21;;;;;;;2.12;1.67;;;;;;;16.14;87.98;98284.03;1622991;88;27513;-60
2022/09/10 05:00:47;;;;;;;3.08;2.00;;;;;;;16.20;87.21;98280.42;1622978;88;25900;-60
2022/09/10 05:03:13;;;;;;;3.15;1.98;;;;;;;16.15;87.24;98280.91;1619689;88;26330;-60
2022/09/10 05:05:44;;;;;;;3.10;2.22;;;;;;;16.17;87.16;98279.16;1623075;88;26068;-60
2022/09/10 05:08:11;;;;;;;4.47;2.00;;;;;;;16.12;86.76;98280.84;1622815;88;25617;-60
2022/09/10 05:10:38;;;;;;;2.83;1.82;;;;;;;16.07;86.93;98283.30;1622941;88;27884;-60
2022/09/10 05:13:04;;;;;;;5.87;2.05;;;;;;;16.00;87.23;98277.63;1605485;88;25767;-60
2022/09/10 05:15:30;;;;;;;2.98;2.10;;;;;;;16.00;86.97;98280.39;1623100;88;25609;-60
2022/09/10 05:17:57;;;;;;;3.87;2.60;;;;;;;15.98;87.20;98282.70;1622749;88;25948;-60
2022/09/10 05:20:22;;;;;;;2.45;1.98;;;;;;;15.98;87.12;98286.27;1623218;88;25435;-60
2022/09/10 05:22:48;;;;;;;3.25;2.00;;;;;;;15.96;87.82;98283.03;1623000;88;27400;-59
2022/09/10 05:25:15;;;;;;;2.22;1.80;;;;;;;16.05;87.89;98284.23;1623263;88;25700;-60
2022/09/10 05:27:41;;;;;;;3.58;2.15;;;;;;;16.12;87.93;98286.37;1623181;88;25461;-60
2022/09/10 05:30:09;;;;;;;3.67;2.22;;;;;;;16.18;87.48;98278.80;1623012;88;26877;-60
2022/09/10 05:32:35;;;;;;;3.12;1.87;;;;;;;16.16;87.41;98282.53;1623021;88;25643;-60
2022/09/10 05:35:04;;;;;;;2.00;1.72;;;;;;;16.24;87.55;98275.77;1622950;88;27599;-60
2022/09/10 05:37:30;;;;;;;2.00;1.80;;;;;;;16.26;86.84;98272.86;1622681;87;25522;-62
2022/09/10 05:39:58;;;;;;;1.92;1.60;;;;;;;16.23;87.32;98268.05;1622969;88;25430;-60
2022/09/10 05:42:24;;;;;;;3.67;1.72;;;;;;;16.37;87.46;98276.42;1622927;88;26094;-61
2022/09/10 05:44:50;;;;;;;2.67;1.75;;;;;;;16.48;86.92;98271.13;1623094;88;25705;-61
2022/09/10 05:47:16;;;;;;;2.10;1.67;;;;;;;16.56;86.55;98263.20;1623226;87;27431;-61
2022/09/10 05:49:45;;;;;;;2.60;1.80;;;;;;;16.61;86.10;98267.05;1627534;87;25724;-60
2022/09/10 05:52:11;;;;;;;2.25;1.75;;;;;;;16.65;86.43;98269.32;1627358;87;25527;-61
2022/09/10 05:54:37;;;;;;;4.05;2.00;;;;;;;16.64;86.27;98278.77;1627375;88;26303;-60
2022/09/10 05:57:04;;;;;;;2.20;2.00;;;;;;;16.54;86.84;98285.70;1627263;87;25484;-60
2022/09/10 05:59:30;;;;;;;3.22;2.30;;;;;;;16.50;87.21;98276.53;1624433;87;27068;-60
2022/09/10 06:01:58;;;;;;;4.05;2.50;;;;;;;16.51;87.18;98279.51;1627832;87;25723;-60
2022/09/10 06:04:24;;;;;;;5.22;2.40;;;;;;;16.50;87.35;98276.53;1627533;87;25849;-60
2022/09/10 06:06:50;;;;;;;2.92;2.15;;;;;;;16.59;87.53;98272.16;1627905;87;26006;-60
2022/09/10 06:09:16;;;;;;;2.27;2.08;;;;;;;16.58;86.78;98273.91;1627834;87;25424;-60
2022/09/10 06:11:42;;;;;;;3.50;2.37;;;;;;;16.58;87.07;98271.14;1627641;87;28293;-61
2022/09/10 06:14:08;;;;;;;3.62;2.35;;;;;;;16.54;87.17;98266.91;1627760;87;25737;-61
2022/09/10 06:16:34;;;;;;;2.80;2.20;;;;;;;16.56;87.28;98272.89;1627776;87;25501;-60
2022/09/10 06:19:00;;;;;;;3.98;2.70;;;;;;;16.56;87.35;98267.36;1627654;87;26807;-62
2022/09/10 06:21:28;;;;;;;4.05;2.55;;;;;;;16.60;87.34;98268.79;1627628;87;25482;-61
2022/09/10 06:23:55;;;;;;;5.08;3.00;;;;;;;16.73;87.57;98273.03;1627490;88;28228;-62
2022/09/10 06:26:21;;;;;;;6.50;3.72;;;;;;;16.84;87.46;98277.38;1627566;88;25732;-60
2022/09/10 06:28:52;;;;;;;9.45;3.58;;;;;;;16.91;87.09;98272.57;1627736;88;25769;-60
2022/09/10 06:31:18;;;;;;;;;;;;;;;16.95;87.18;98278.19;1629970;87;26647;-60
2022/09/10 06:33:47;;;;;;;4.78;3.27;;;;;;;17.00;86.97;98273.72;1627370;88;25916;-60
2022/09/10 06:36:14;;;;;;;4.70;3.30;;;;;;;16.98;86.56;98275.47;1626610;88;28303;-60
2022/09/10 06:38:43;;;;;;;4.95;3.50;;;;;;;16.99;87.30;98269.36;1627388;88;25632;-60
2022/09/10 06:41:12;;;;;;;5.25;3.25;;;;;;;17.03;87.49;98274.37;1627506;87;25530;-60
2022/09/10 06:43:40;;;;;;;4.08;3.47;;;;;;;17.13;87.46;98279.93;1627244;88;28073;-60
2022/09/10 06:46:18;;;;;;;4.37;2.92;;;;;;;17.21;87.37;98279.48;1627518;87;25719;-59
2022/09/10 06:48:45;;;;;;;3.30;2.75;;;;;;;17.30;86.57;98280.05;1627648;88;27426;-60
2022/09/10 06:51:13;;;;;;;4.67;2.95;;;;;;;17.37;85.59;98272.42;1627655;87;25531;-59
2022/09/10 06:53:41;;;;;;;3.17;2.83;;;;;;;17.43;85.52;98274.53;1625324;88;25799;-60
2022/09/10 06:56:10;;;;;;;3.92;3.05;;;;;;;17.47;86.38;98275.17;1626784;87;27340;-59
2022/09/10 06:58:38;;;;;;;4.57;3.03;;;;;;;17.48;85.58;98276.19;1628045;88;25502;-59
2022/09/10 07:01:20;;;;;;;3.60;3.20;;;;;;;17.51;85.21;98276.84;1627469;88;27488;-61
2022/09/10 07:03:46;;;;;;;4.75;3.42;;;;;;;17.58;85.57;98272.59;1627679;88;25461;-60
2022/09/10 07:06:16;;;;;;;4.50;3.30;;;;;;;17.67;85.32;98273.11;1627939;87;25641;-60
2022/09/10 07:08:43;;;;;;;4.37;3.42;;;;;;;17.75;84.13;98283.72;1627820;87;28040;-60
2022/09/10 07:11:14;;;;;;;4.12;3.75;;;;;;;17.87;84.45;98283.53;1627752;87;25628;-60
2022/09/10 07:13:44;;;;;;;5.10;3.72;;;;;;;17.86;84.42;98290.25;1627772;88;27565;-62
2022/09/10 07:16:10;;;;;;;6.12;4.00;;;;;;;17.77;83.78;98290.52;1627391;87;26034;-60
2022/09/10 07:18:36;;;;;;;3.92;3.52;;;;;;;17.75;84.25;98297.00;1627682;87;25644;-60
2022/09/10 07:21:13;;;;;;;3.90;3.50;;;;;;;17.72;84.22;98297.75;1627437;88;26146;-62
2022/09/10 07:23:40;;;;;;;2.85;2.65;;;;;;;17.66;83.24;98302.81;1628230;87;25680;-59
2022/09/10 07:26:10;;;;;;;3.40;2.40;;;;;;;17.63;83.53;98301.35;1627805;88;28299;-59
2022/09/10 07:28:38;;;;;;;;;;;;;;;17.72;84.11;98305.25;1630000;88;25849;-59
2022/09/10 07:31:23;;;;;;;3.20;2.00;;;;;;;17.72;82.74;98295.55;1627472;88;25691;-59
2022/09/10 07:33:50;;;;;;;3.37;2.55;;;;;;;17.74;83.25;98298.77;1627716;87;26009;-59
2022/09/10 07:36:17;;;;;;;2.80;2.45;;;;;;;17.78;83.94;98294.88;1627886;87;25733;-60
2022/09/10 07:38:44;;;;;;;2.80;2.55;;;;;;;17.91;83.25;98299.62;1627411;88;27420;-60
2022/09/10 07:41:13;;;;;;;3.83;2.95;;;;;;;18.14;83.54;98294.63;1627689;87;25813;-60
2022/09/10 07:43:43;;;;;;;2.87;2.60;;;;;;;18.22;82.58;98296.14;1627674;87;25510;-59
2022/09/10 07:46:15;;;;;;;2.98;2.67;;;;;;;18.28;81.75;98295.43;1628058;88;26227;-60
2022/09/10 07:48:41;;;;;;;3.72;3.00;;;;;;;18.42;80.44;98292.05;1627264;87;25608;-59
2022/09/10 07:51:09;;;;;;;3.15;2.58;;;;;;;18.45;81.22;98292.49;1627427;87;27457;-59
2022/09/10 07:53:37;;;;;;;3.12;2.83;;;;;;;18.54;78.43;98294.40;1627419;87;25442;-59
2022/09/10 07:56:07;;;;;;;3.55;2.90;;;;;;;18.26;77.84;98286.70;1627507;87;25643;-59
2022/09/10 07:58:36;;;;;;;4.75;2.90;;;;;;;18.04;77.78;98286.94;1624029;88;26443;-59
2022/09/10 08:01:10;;;;;;;3.05;2.70;;;;;;;18.02;79.41;98287.91;1627860;88;25771;-59
2022/09/10 08:03:38;;;;;;;3.80;2.80;;;;;;;18.23;80.19;98289.41;1627265;88;27272;-59
2022/09/10 08:06:07;;;;;;;3.17;2.87;;;;;;;18.18;77.94;98285.80;1627445;88;26086;-59
2022/09/10 08:08:37;;;;;;;4.42;3.10;;;;;;;18.23;79.20;98287.45;1627619;87;25468;-59
2022/09/10 08:11:11;;;;;;;3.80;3.02;;;;;;;18.32;80.33;98285.78;1627838;88;26097;-59
2022/09/10 08:13:44;;;;;;;4.95;2.98;;;;;;;18.45;79.65;98293.27;1627326;88;25753;-59
2022/09/10 08:16:17;;;;;;;3.10;2.90;;;;;;;18.56;79.02;98295.61;1627584;87;28273;-59
2022/09/10 08:18:46;;;;;;;4.37;3.00;;;;;;;18.72;79.42;98293.23;1627573;88;25440;-58
2022/09/10 08:21:14;;;;;;;4.40;3.02;;;;;;;18.84;77.26;98293.56;1627674;88;25791;-58
2022/09/10 08:23:42;;;;;;;3.47;3.12;;;;;;;18.90;76.98;98298.18;1627703;88;26044;-58
2022/09/10 08:26:09;;;;;;;3.22;2.90;;;;;;;19.09;78.14;98300.02;1627487;88;25503;-58
2022/09/10 08:28:36;;;;;;;4.30;3.25;;;;;;;19.32;76.53;98303.23;1627471;88;27423;-58
2022/09/10 08:31:10;;;;;;;4.40;3.05;;;;;;;19.47;75.20;98307.52;1627211;87;25882;-58
2022/09/10 08:33:38;;;;;;;4.05;3.52;;;;;;;19.58;75.56;98313.18;1626657;87;26449;-58
2022/09/10 08:36:08;;;;;;;3.55;3.25;;;;;;;19.73;76.41;98319.66;1627601;88;26041;-58
2022/09/10 08:38:38;;;;;;;3.77;3.47;;;;;;;19.76;75.51;98316.11;1603755;88;25742;-58
2022/09/10 08:41:35;;;;;;;3.45;3.15;;;;;;;19.71;75.20;98313.70;1627850;88;27641;-58
2022/09/10 08:44:11;;;;;;;3.92;3.12;;;;;;;19.70;75.27;98318.45;1627247;88;25660;-58
2022/09/10 08:46:54;;;;;;;4.00;2.90;;;;;;;19.72;75.33;98311.92;1627634;87;25434;-58
2022/09/10 08:49:38;;;;;;;4.05;3.40;;;;;;;19.88;73.26;98314.42;1627336;87;26149;-58
2022/09/10 08:52:10;;;;;;;2.67;2.47;;;;;;;20.07;73.14;98316.78;1624958;88;25723;-58
2022/09/10 08:54:45;;;;;;;2.52;2.00;;;;;;;20.22;72.71;98310.71;1626098;88;29565;-61
2022/09/10 08:57:22;;;;;;;1.85;1.75;;;;;;;20.38;72.87;98311.78;1627347;87;25523;-62
2022/09/10 08:59:51;;;;;;;3.50;2.10;;;;;;;20.49;72.26;98313.23;1624145;88;25614;-62
2022/09/10 09:02:35;;;;;;;3.35;2.30;;;;;;;20.52;69.79;98313.08;1627140;88;27007;-59
2022/09/10 09:05:18;;;;;;;2.87;2.67;;;;;;;20.53;71.08;98307.70;1627674;87;25523;-62
2022/09/10 09:07:47;;;;;;;2.87;2.62;;;;;;;20.57;70.29;98308.51;1627596;88;27808;-62
2022/09/10 09:10:40;;;;;;;3.00;2.70;;;;;;;20.62;69.55;98309.54;1627719;87;25470;-61
2022/09/10 09:13:43;;;;;;;3.08;2.80;;;;;;;20.64;69.17;98302.97;1617690;88;25578;-61
2022/09/10 09:16:52;;;;;;;3.20;2.90;;;;;;;20.80;71.34;98305.44;1627352;88;25979;-62
2022/09/10 09:19:42;;;;;;;2.70;2.50;;;;;;;20.91;70.04;98305.51;1627449;87;25660;-62
2022/09/10 09:22:47;;;;;;;2.80;2.60;;;;;;;21.13;68.64;98304.77;1606742;89;27576;-60
2022/09/10 09:25:33;;;;;;;3.20;2.90;;;;;;;21.22;68.55;98310.77;1583346;90;25533;-59
2022/09/10 09:28:00;;;;;;;3.12;2.72;;;;;;;21.35;68.88;98302.81;1584062;90;25691;-59
2022/09/10 09:30:47;;;;;;;2.60;2.40;;;;;;;21.37;67.40;98303.81;1583709;90;26077;-58
2022/09/10 09:33:19;;;;;;;2.65;2.45;;;;;;;21.14;64.69;98303.56;1582646;90;25753;-59
2022/09/10 09:36:02;;;;;;;2.10;1.90;;;;;;;21.04;67.01;98300.97;1584246;90;27438;-59
2022/09/10 09:38:33;;;;;;;1.65;1.55;;;;;;;21.12;67.29;98298.39;1584028;90;25686;-58
2022/09/10 09:41:08;;;;;;;2.12;1.90;;;;;;;21.28;66.69;98292.47;1583748;90;25632;-58
2022/09/10 09:43:53;;;;;;;2.85;2.17;;;;;;;21.52;66.57;98290.68;1563576;90;25981;-57
2022/09/10 09:46:23;;;;;;;3.15;1.87;;;;;;;21.64;65.91;98281.92;1584017;90;25632;-61
2022/09/10 09:48:54;;;;;;;2.20;2.00;;;;;;;21.73;63.98;98285.70;1581636;90;27525;-62
2022/09/10 09:51:24;;;;;;;2.27;2.02;;;;;;;21.88;64.25;98280.16;1564903;91;25853;-60
2022/09/10 09:53:56;;;;;;;2.47;2.00;;;;;;;22.10;65.05;98282.31;1564927;91;25772;-59
2022/09/10 09:56:28;;;;;;;1.70;1.60;;;;;;;22.38;63.58;98275.07;1596004;88;26720;-59
2022/09/10 09:58:57;;;;;;;1.37;1.27;;;;;;;22.41;60.70;98267.28;1625239;87;25720;-59
2022/09/10 10:01:25;;;;;;;2.02;1.60;;;;;;;22.19;58.05;98271.53;1627316;87;25879;-59
2022/09/10 10:03:57;;;;;;;2.65;1.60;;;;;;;22.22;58.43;98275.50;1627430;88;25657;-58
2022/09/10 10:06:31;;;;;;;2.52;1.30;;;;;;;22.17;59.53;98273.91;1627327;88;25693;-59
2022/09/10 10:09:23;;;;;;;1.12;1.10;;;;;;;22.35;59.91;98272.28;1627747;88;26162;-59
2022/09/10 10:11:56;;;;;;;1.87;1.10;;;;;;;22.21;58.51;98275.31;1603268;88;25526;-59
2022/09/10 10:14:40;;;;;;;1.50;1.17;;;;;;;22.31;60.26;98273.70;1634186;86;27466;-59
2022/09/10 10:17:40;;;;;;;1.12;1.00;;;;;;;22.77;60.35;98267.75;1661447;86;25686;-59
2022/09/10 10:20:15;;;;;;;2.27;0.98;;;;;;;23.35;59.16;98261.63;1647617;86;25787;-59
2022/09/10 10:22:47;;;;;;;1.60;0.90;;;;;;;23.61;58.59;98260.86;1638855;86;25943;-59
2022/09/10 10:25:46;;;;;;;1.42;0.90;;;;;;;23.77;56.58;98258.31;1652610;86;25686;-59
2022/09/10 10:28:18;;;;;;;1.67;0.80;;;;;;;23.90;55.71;98255.80;1624055;86;27057;-59
2022/09/10 10:30:51;;;;;;;0.82;0.70;;;;;;;24.42;55.79;98250.48;1623961;86;25750;-59
2022/09/10 10:33:25;;;;;;;1.00;0.90;;;;;;;24.75;55.61;98250.08;1624568;88;25705;-59
2022/09/10 10:36:25;;;;;;;0.95;0.65;;;;;;;25.00;55.17;98251.75;1623098;87;25954;-59
2022/09/10 10:39:02;;;;;;;1.10;0.80;;;;;;;25.14;52.74;98254.95;1623689;88;25750;-58
2022/09/10 10:41:43;;;;;;;0.75;0.70;;;;;;;24.78;51.09;98246.44;1624899;88;28809;-59
2022/09/10 10:44:18;;;;;;;;;;;;;;;24.63;53.41;98246.61;1651943;86;26446;-60
2022/09/10 10:47:05;;;;;;;0.72;0.70;;;;;;;24.78;53.73;98243.01;1652366;86;25682;-59
2022/09/10 10:50:04;;;;;;;1.15;0.70;;;;;;;25.05;53.38;98245.69;1647917;86;26154;-58
2022/09/10 10:53:25;;;;;;;0.65;0.50;;;;;;;24.99;50.75;98240.36;1573476;91;25585;-59
2022/09/10 10:56:15;;;;;;;0.95;0.80;;;;;;;24.88;51.25;98232.11;1574263;91;27516;-58
2022/09/10 10:59:23;;;;;;;1.12;0.78;;;;;;;25.12;49.59;98237.16;1573106;91;25529;-58
2022/09/10 11:01:58;;;;;;;1.32;0.90;;;;;;;25.18;52.88;98234.66;1563420;91;25609;-59
2022/09/10 11:04:33;;;;;;;1.32;0.68;;;;;;;24.99;50.08;98234.16;1562947;91;28231;-59
2022/09/10 11:07:16;;;;;;;1.07;0.68;;;;;;;24.66;50.22;98233.77;1563247;91;25819;-58
2022/09/10 11:09:54;;;;;;;1.22;0.60;;;;;;;24.65;51.67;98232.19;1563376;91;28632;-61
2022/09/10 11:12:41;;;;;;;0.90;0.50;;;;;;;24.59;52.17;98235.27;1563250;91;25710;-61
2022/09/10 11:15:29;;;;;;;0.88;0.70;;;;;;;24.49;52.62;98236.38;1563424;91;25709;-61
2022/09/10 11:18:04;;;;;;;0.75;0.55;;;;;;;24.53;53.38;98232.92;1563371;91;26054;-61
2022/09/10 11:20:34;;;;;;;1.75;0.60;;;;;;;24.47;52.89;98231.83;1563438;91;25521;-60
2022/09/10 11:23:19;;;;;;;1.70;0.72;;;;;;;24.37;54.04;98227.13;1563624;91;27520;-61
2022/09/10 11:26:21;;;;;;;0.70;0.70;;;;;;;24.60;54.22;98225.64;1563500;91;25711;-59
2022/09/10 11:29:19;;;;;;;1.80;0.80;;;;;;;24.71;54.03;98229.11;1574407;88;25868;-58
2022/09/10 11:32:17;;;;;;;1.82;0.90;;;;;;;24.32;53.55;98224.18;1630759;87;26058;-58
2022/09/10 11:35:18;;;;;;;2.47;1.10;;;;;;;24.20;52.86;98222.72;1602728;89;25778;-58
2022/09/10 11:38:21;;;;;;;0.93;0.72;;;;;;;24.29;53.51;98223.02;1600620;89;28292;-60
2022/09/10 11:41:24;;;;;;;2.08;0.80;;;;;;;24.49;53.70;98217.41;1520263;93;25564;-60
2022/09/10 11:44:16;;;;;;;1.12;0.60;;;;;;;24.76;54.35;98210.44;1530944;93;25910;-58
2022/09/10 11:46:48;;;;;;;0.95;0.60;;;;;;;24.90;51.81;98206.64;1530569;93;26109;-58
2022/09/10 11:49:26;;;;;;;1.70;0.70;;;;;;;25.22;50.92;98212.19;1528710;92;25801;-58
2022/09/10 11:51:53;;;;;;;0.60;0.53;;;;;;;25.83;48.51;98205.38;1524517;94;26980;-58
2022/09/10 11:54:28;;;;;;;1.85;0.70;;;;;;;26.17;48.59;98207.14;1524158;94;25718;-58
2022/09/10 11:57:08;;;;;;;1.07;0.80;;;;;;;26.77;47.56;98202.08;1524339;94;25711;-58
2022/09/10 11:59:53;;;;;;;1.82;0.60;;;;;;;26.96;46.46;98196.05;1524305;94;26041;-58
2022/09/10 12:03:00;;;;;;;1.35;0.53;;;;;;;26.90;44.55;98207.83;1524240;94;25776;-58